sensor_id;sensor_type;location;lat;lon;timestamp;pressure;altitude;pressure_sealevel;temperature;humidity
64292;BME280;50628;51.008;13.658;2023-03-04T00:01:25;100194.59;;;0.59;100.00
64292;BME280;50628;51.008;13.658;2023-03-04T00:06:28;100194.47;;;0.63;100.00
64292;BME280;50628;51.008;13.658;2023-03-04T00:11:31;100188.44;;;0.64;100.00
64292;BME280;50628;51.008;13.658;2023-03-04T00:16:33;100186.03;;;0.60;100.00
64292;BME280;50628;51.008;13.658;2023-03-04T00:21:36;100176.97;;;0.76;100.00
64292;BME280;50628;51.008;13.658;2023-03-04T00:26:38;100173.97;;;0.63;100.00
64292;BME280;50628;51.008;13.658;2023-03-04T00:31:41;100167.09;;;0.66;100.00
64292;BME280;50628;51.008;13.658;2023-03-04T00:36:44;100168.06;;;0.61;100.00
64292;BME280;50628;51.008;13.658;2023-03-04T00:41:46;100158.47;;;0.68;100.00
64292;BME280;50628;51.008;13.658;2023-03-04T00:46:48;100169.47;;;0.70;100.00
64292;BME280;50628;51.008;13.658;2023-03-04T00:51:51;100154.16;;;0.69;100.00
64292;BME280;50628;51.008;13.658;2023-03-04T00:56:53;100149.75;;;0.72;100.00
64292;BME280;50628;51.008;13.658;2023-03-04T01:01:55;100145.00;;;0.61;100.00
64292;BME280;50628;51.008;13.658;2023-03-04T01:06:58;100145.69;;;0.67;100.00
64292;BME280;50628;51.008;13.658;2023-03-04T01:12:00;100145.44;;;0.74;100.00
64292;BME280;50628;51.008;13.658;2023-03-04T01:17:02;100134.88;;;0.83;100.00
64292;BME280;50628;51.008;13.658;2023-03-04T01:22:05;100130.47;;;0.87;100.00
64292;BME280;50628;51.008;13.658;2023-03-04T01:27:07;100127.88;;;0.89;100.00
64292;BME280;50628;51.008;13.658;2023-03-04T01:32:09;100113.53;;;0.83;100.00
64292;BME280;50628;51.008;13.658;2023-03-04T01:37:12;100101.09;;;0.96;100.00
64292;BME280;50628;51.008;13.658;2023-03-04T01:42:17;100095.50;;;0.86;100.00
64292;BME280;50628;51.008;13.658;2023-03-04T01:47:21;100093.41;;;0.96;100.00
64292;BME280;50628;51.008;13.658;2023-03-04T01:52:26;100066.56;;;0.82;100.00
64292;BME280;50628;51.008;13.658;2023-03-04T01:57:34;100085.97;;;0.90;100.00
64292;BME280;50628;51.008;13.658;2023-03-04T02:02:36;100073.09;;;0.91;100.00
64292;BME280;50628;51.008;13.658;2023-03-04T02:07:39;100082.97;;;1.02;100.00
64292;BME280;50628;51.008;13.658;2023-03-04T02:12:41;100077.00;;;1.01;100.00
64292;BME280;50628;51.008;13.658;2023-03-04T02:17:43;100065.19;;;0.97;100.00
64292;BME280;50628;51.008;13.658;2023-03-04T02:22:53;100060.97;;;0.96;100.00
64292;BME280;50628;51.008;13.658;2023-03-04T02:27:58;100041.63;;;0.88;100.00
64292;BME280;50628;51.008;13.658;2023-03-04T02:33:00;100056.00;;;0.92;100.00
64292;BME280;50628;51.008;13.658;2023-03-04T02:38:02;100044.91;;;0.91;100.00
64292;BME280;50628;51.008;13.658;2023-03-04T02:43:08;100031.75;;;1.00;100.00
64292;BME280;50628;51.008;13.658;2023-03-04T02:48:11;100037.91;;;0.96;100.00
64292;BME280;50628;51.008;13.658;2023-03-04T02:53:14;100028.97;;;1.06;100.00
64292;BME280;50628;51.008;13.658;2023-03-04T02:58:18;100020.84;;;0.95;100.00
64292;BME280;50628;51.008;13.658;2023-03-04T03:03:21;100010.75;;;0.91;100.00
64292;BME280;50628;51.008;13.658;2023-03-04T03:08:23;100020.78;;;0.97;100.00
64292;BME280;50628;51.008;13.658;2023-03-04T03:13:26;100019.28;;;0.91;100.00
64292;BME280;50628;51.008;13.658;2023-03-04T03:18:29;100013.38;;;0.89;100.00
64292;BME280;50628;51.008;13.658;2023-03-04T03:23:31;100015.88;;;0.91;100.00
64292;BME280;50628;51.008;13.658;2023-03-04T03:28:35;100013.22;;;0.94;100.00
64292;BME280;50628;51.008;13.658;2023-03-04T03:33:37;100009.66;;;0.74;100.00
64292;BME280;50628;51.008;13.658;2023-03-04T03:38:39;100003.19;;;0.88;100.00
64292;BME280;50628;51.008;13.658;2023-03-04T03:43:42;100008.41;;;0.84;100.00
64292;BME280;50628;51.008;13.658;2023-03-04T03:48:44;99991.47;;;0.80;100.00
64292;BME280;50628;51.008;13.658;2023-03-04T03:53:46;99988.69;;;0.86;100.00
64292;BME280;50628;51.008;13.658;2023-03-04T03:58:49;99996.00;;;0.74;100.00
64292;BME280;50628;51.008;13.658;2023-03-04T04:03:51;99991.19;;;0.64;100.00
64292;BME280;50628;51.008;13.658;2023-03-04T04:08:53;100003.63;;;0.75;100.00
64292;BME280;50628;51.008;13.658;2023-03-04T04:13:56;100007.13;;;0.73;100.00
64292;BME280;50628;51.008;13.658;2023-03-04T04:18:58;100001.13;;;0.74;100.00
64292;BME280;50628;51.008;13.658;2023-03-04T04:24:00;100005.31;;;0.76;100.00
64292;BME280;50628;51.008;13.658;2023-03-04T04:29:03;100005.06;;;0.82;100.00
64292;BME280;50628;51.008;13.658;2023-03-04T04:34:05;100002.22;;;0.90;100.00
64292;BME280;50628;51.008;13.658;2023-03-04T04:39:07;99998.16;;;0.84;100.00
64292;BME280;50628;51.008;13.658;2023-03-04T04:44:11;99998.28;;;0.81;100.00
64292;BME280;50628;51.008;13.658;2023-03-04T04:49:13;100002.06;;;0.95;100.00
64292;BME280;50628;51.008;13.658;2023-03-04T04:54:15;99998.38;;;1.02;100.00
64292;BME280;50628;51.008;13.658;2023-03-04T04:59:18;99999.97;;;1.06;100.00
64292;BME280;50628;51.008;13.658;2023-03-04T05:04:20;99996.44;;;1.08;100.00
64292;BME280;50628;51.008;13.658;2023-03-04T05:09:22;99988.78;;;1.07;100.00
64292;BME280;50628;51.008;13.658;2023-03-04T05:14:25;99992.97;;;1.10;100.00
64292;BME280;50628;51.008;13.658;2023-03-04T05:19:28;99988.91;;;1.04;100.00
64292;BME280;50628;51.008;13.658;2023-03-04T05:24:30;99990.25;;;1.14;100.00
64292;BME280;50628;51.008;13.658;2023-03-04T05:29:33;99979.91;;;1.16;100.00
64292;BME280;50628;51.008;13.658;2023-03-04T05:34:35;99969.66;;;1.16;100.00
64292;BME280;50628;51.008;13.658;2023-03-04T05:39:36;99981.66;;;1.15;100.00
64292;BME280;50628;51.008;13.658;2023-03-04T05:44:40;99979.75;;;1.20;100.00
64292;BME280;50628;51.008;13.658;2023-03-04T05:49:41;99953.94;;;1.25;100.00
64292;BME280;50628;51.008;13.658;2023-03-04T05:54:44;99954.44;;;1.33;100.00
64292;BME280;50628;51.008;13.658;2023-03-04T05:59:47;99948.63;;;1.29;100.00
64292;BME280;50628;51.008;13.658;2023-03-04T06:04:49;99961.28;;;1.34;100.00
64292;BME280;50628;51.008;13.658;2023-03-04T06:09:50;99962.22;;;1.32;100.00
64292;BME280;50628;51.008;13.658;2023-03-04T06:14:54;99961.16;;;1.37;100.00
64292;BME280;50628;51.008;13.658;2023-03-04T06:19:56;99960.19;;;1.40;100.00
64292;BME280;50628;51.008;13.658;2023-03-04T06:24:57;99965.66;;;1.52;100.00
64292;BME280;50628;51.008;13.658;2023-03-04T06:30:01;99958.97;;;1.48;100.00
64292;BME280;50628;51.008;13.658;2023-03-04T06:35:04;99962.16;;;1.55;100.00
64292;BME280;50628;51.008;13.658;2023-03-04T06:40:08;99960.59;;;1.51;100.00
64292;BME280;50628;51.008;13.658;2023-03-04T06:45:11;99957.94;;;1.54;100.00
64292;BME280;50628;51.008;13.658;2023-03-04T06:50:13;99949.31;;;1.55;100.00
64292;BME280;50628;51.008;13.658;2023-03-04T06:55:15;99955.47;;;1.51;100.00
64292;BME280;50628;51.008;13.658;2023-03-04T07:00:19;99945.84;;;1.56;100.00
64292;BME280;50628;51.008;13.658;2023-03-04T07:05:23;99952.41;;;1.63;100.00
64292;BME280;50628;51.008;13.658;2023-03-04T07:10:25;99952.22;;;1.68;100.00
64292;BME280;50628;51.008;13.658;2023-03-04T07:15:29;99959.16;;;1.86;100.00
64292;BME280;50628;51.008;13.658;2023-03-04T07:20:31;99948.34;;;1.80;100.00
64292;BME280;50628;51.008;13.658;2023-03-04T07:25:33;99949.81;;;1.85;100.00
64292;BME280;50628;51.008;13.658;2023-03-04T07:30:36;99946.00;;;1.73;100.00
64292;BME280;50628;51.008;13.658;2023-03-04T07:35:38;99953.28;;;1.84;100.00
64292;BME280;50628;51.008;13.658;2023-03-04T07:40:39;99945.25;;;1.92;100.00
64292;BME280;50628;51.008;13.658;2023-03-04T07:45:43;99949.75;;;1.87;100.00
64292;BME280;50628;51.008;13.658;2023-03-04T07:50:45;99946.47;;;1.83;100.00
64292;BME280;50628;51.008;13.658;2023-03-04T07:55:46;99945.81;;;1.99;100.00
64292;BME280;50628;51.008;13.658;2023-03-04T08:00:50;99938.97;;;1.99;100.00
64292;BME280;50628;51.008;13.658;2023-03-04T08:05:52;99934.09;;;1.93;100.00
64292;BME280;50628;51.008;13.658;2023-03-04T08:10:53;99937.94;;;2.03;100.00
64292;BME280;50628;51.008;13.658;2023-03-04T08:15:57;99942.69;;;2.12;100.00
64292;BME280;50628;51.008;13.658;2023-03-04T08:20:59;99927.50;;;2.27;100.00
64292;BME280;50628;51.008;13.658;2023-03-04T08:26:05;99922.56;;;2.43;100.00
64292;BME280;50628;51.008;13.658;2023-03-04T08:31:08;99926.56;;;2.48;100.00
64292;BME280;50628;51.008;13.658;2023-03-04T08:36:10;99942.03;;;2.47;100.00
64292;BME280;50628;51.008;13.658;2023-03-04T08:41:13;99923.22;;;2.46;100.00
64292;BME280;50628;51.008;13.658;2023-03-04T08:46:16;99922.97;;;2.52;100.00
64292;BME280;50628;51.008;13.658;2023-03-04T08:51:18;99931.13;;;2.62;100.00
64292;BME280;50628;51.008;13.658;2023-03-04T08:56:20;99919.44;;;2.74;100.00
64292;BME280;50628;51.008;13.658;2023-03-04T09:01:23;99915.19;;;2.92;100.00
64292;BME280;50628;51.008;13.658;2023-03-04T09:06:25;99923.88;;;2.70;100.00
64292;BME280;50628;51.008;13.658;2023-03-04T09:11:27;99927.72;;;2.80;100.00
64292;BME280;50628;51.008;13.658;2023-03-04T09:16:30;99925.88;;;3.01;100.00
64292;BME280;50628;51.008;13.658;2023-03-04T09:21:32;99919.16;;;2.80;100.00
64292;BME280;50628;51.008;13.658;2023-03-04T09:26:34;99936.78;;;3.07;100.00
64292;BME280;50628;51.008;13.658;2023-03-04T09:31:37;99919.34;;;3.13;100.00
64292;BME280;50628;51.008;13.658;2023-03-04T09:36:39;99928.25;;;2.87;100.00
64292;BME280;50628;51.008;13.658;2023-03-04T09:41:43;99916.56;;;2.99;100.00
64292;BME280;50628;51.008;13.658;2023-03-04T09:46:48;99908.09;;;2.97;100.00
64292;BME280;50628;51.008;13.658;2023-03-04T09:51:56;99906.75;;;3.07;100.00
64292;BME280;50628;51.008;13.658;2023-03-04T09:57:11;99904.72;;;3.14;100.00
64292;BME280;50628;51.008;13.658;2023-03-04T10:02:24;99909.69;;;2.99;100.00
64292;BME280;50628;51.008;13.658;2023-03-04T10:07:35;99899.59;;;3.14;100.00
64292;BME280;50628;51.008;13.658;2023-03-04T10:12:41;99887.59;;;3.32;100.00
64292;BME280;50628;51.008;13.658;2023-03-04T10:17:47;99881.84;;;3.44;100.00
64292;BME280;50628;51.008;13.658;2023-03-04T10:22:52;99885.34;;;3.43;100.00
64292;BME280;50628;51.008;13.658;2023-03-04T10:27:58;99882.22;;;3.36;100.00
64292;BME280;50628;51.008;13.658;2023-03-04T10:33:08;99885.94;;;3.31;100.00
64292;BME280;50628;51.008;13.658;2023-03-04T10:38:12;99868.81;;;3.30;100.00
64292;BME280;50628;51.008;13.658;2023-03-04T10:43:15;99871.09;;;3.36;100.00
64292;BME280;50628;51.008;13.658;2023-03-04T10:48:24;99858.63;;;3.63;100.00
64292;BME280;50628;51.008;13.658;2023-03-04T10:53:32;99857.88;;;3.61;100.00
64292;BME280;50628;51.008;13.658;2023-03-04T10:58:37;99865.41;;;3.64;100.00
64292;BME280;50628;51.008;13.658;2023-03-04T11:03:46;99868.38;;;3.56;100.00
64292;BME280;50628;51.008;13.658;2023-03-04T11:08:53;99868.66;;;3.50;100.00
64292;BME280;50628;51.008;13.658;2023-03-04T11:13:59;99856.72;;;3.49;100.00
64292;BME280;50628;51.008;13.658;2023-03-04T11:19:05;99855.19;;;3.45;100.00
64292;BME280;50628;51.008;13.658;2023-03-04T11:24:13;99851.72;;;3.46;100.00
64292;BME280;50628;51.008;13.658;2023-03-04T11:29:19;99848.25;;;3.47;100.00
64292;BME280;50628;51.008;13.658;2023-03-04T11:34:32;99845.28;;;3.55;100.00
64292;BME280;50628;51.008;13.658;2023-03-04T11:39:37;99836.28;;;3.63;100.00
64292;BME280;50628;51.008;13.658;2023-03-04T11:44:40;99837.31;;;3.77;100.00
64292;BME280;50628;51.008;13.658;2023-03-04T11:49:58;99834.50;;;3.81;100.00
64292;BME280;50628;51.008;13.658;2023-03-04T11:55:17;99822.47;;;3.82;100.00
64292;BME280;50628;51.008;13.658;2023-03-04T12:00:32;99820.88;;;3.79;100.00
64292;BME280;50628;51.008;13.658;2023-03-04T12:05:43;99823.22;;;3.84;100.00
64292;BME280;50628;51.008;13.658;2023-03-04T12:10:59;99816.69;;;3.94;100.00
64292;BME280;50628;51.008;13.658;2023-03-04T12:16:14;99815.69;;;3.97;100.00
64292;BME280;50628;51.008;13.658;2023-03-04T12:21:30;99803.06;;;3.92;100.00
64292;BME280;50628;51.008;13.658;2023-03-04T12:26:42;99793.75;;;3.89;100.00
64292;BME280;50628;51.008;13.658;2023-03-04T12:31:48;99787.72;;;4.06;100.00
64292;BME280;50628;51.008;13.658;2023-03-04T12:37:10;99782.91;;;4.16;100.00
64292;BME280;50628;51.008;13.658;2023-03-04T12:42:22;99774.78;;;4.24;100.00
64292;BME280;50628;51.008;13.658;2023-03-04T12:47:33;99774.84;;;4.22;100.00
64292;BME280;50628;51.008;13.658;2023-03-04T12:52:51;99772.59;;;4.32;100.00
64292;BME280;50628;51.008;13.658;2023-03-04T12:57:56;99762.84;;;4.53;100.00
64292;BME280;50628;51.008;13.658;2023-03-04T13:03:08;99760.06;;;4.42;100.00
64292;BME280;50628;51.008;13.658;2023-03-04T13:08:24;99756.56;;;4.43;100.00
64292;BME280;50628;51.008;13.658;2023-03-04T13:13:39;99742.03;;;4.42;100.00
64292;BME280;50628;51.008;13.658;2023-03-04T13:18:41;99749.06;;;4.54;100.00
64292;BME280;50628;51.008;13.658;2023-03-04T13:23:45;99749.53;;;4.61;100.00
64292;BME280;50628;51.008;13.658;2023-03-04T13:28:52;99747.78;;;4.77;100.00
64292;BME280;50628;51.008;13.658;2023-03-04T13:34:02;99734.06;;;4.76;100.00
64292;BME280;50628;51.008;13.658;2023-03-04T13:39:26;99732.53;;;4.88;100.00
64292;BME280;50628;51.008;13.658;2023-03-04T13:44:56;99736.06;;;5.02;100.00
64292;BME280;50628;51.008;13.658;2023-03-04T13:50:26;99722.06;;;5.06;100.00
64292;BME280;50628;51.008;13.658;2023-03-04T13:55:34;99718.66;;;5.05;100.00
64292;BME280;50628;51.008;13.658;2023-03-04T14:00:45;99715.63;;;5.13;100.00
64292;BME280;50628;51.008;13.658;2023-03-04T14:06:09;99726.47;;;5.04;100.00
64292;BME280;50628;51.008;13.658;2023-03-04T14:11:15;99718.16;;;4.98;100.00
64292;BME280;50628;51.008;13.658;2023-03-04T14:16:21;99716.81;;;5.21;100.00
64292;BME280;50628;51.008;13.658;2023-03-04T14:21:24;99709.16;;;5.06;100.00
64292;BME280;50628;51.008;13.658;2023-03-04T14:26:27;99701.78;;;5.14;100.00
64292;BME280;50628;51.008;13.658;2023-03-04T14:31:33;99712.56;;;5.06;100.00
64292;BME280;50628;51.008;13.658;2023-03-04T14:36:36;99717.84;;;5.05;100.00
64292;BME280;50628;51.008;13.658;2023-03-04T14:41:40;99701.78;;;5.14;100.00
64292;BME280;50628;51.008;13.658;2023-03-04T14:46:46;99702.00;;;5.25;100.00
64292;BME280;50628;51.008;13.658;2023-03-04T14:51:50;99700.81;;;5.31;100.00
64292;BME280;50628;51.008;13.658;2023-03-04T14:56:54;99690.69;;;5.28;100.00
64292;BME280;50628;51.008;13.658;2023-03-04T15:02:15;99695.44;;;5.05;100.00
64292;BME280;50628;51.008;13.658;2023-03-04T15:07:21;99693.44;;;4.80;100.00
64292;BME280;50628;51.008;13.658;2023-03-04T15:12:29;99688.06;;;4.99;100.00
64292;BME280;50628;51.008;13.658;2023-03-04T15:17:33;99694.31;;;4.95;100.00
64292;BME280;50628;51.008;13.658;2023-03-04T15:22:56;99681.03;;;4.87;100.00
64292;BME280;50628;51.008;13.658;2023-03-04T15:28:02;99683.06;;;4.82;100.00
64292;BME280;50628;51.008;13.658;2023-03-04T15:33:05;99680.75;;;4.77;100.00
64292;BME280;50628;51.008;13.658;2023-03-04T15:38:11;99689.44;;;4.90;100.00
64292;BME280;50628;51.008;13.658;2023-03-04T15:43:16;99693.31;;;4.67;100.00
64292;BME280;50628;51.008;13.658;2023-03-04T15:48:19;99699.56;;;4.63;100.00
64292;BME280;50628;51.008;13.658;2023-03-04T15:53:27;99696.19;;;4.47;100.00
64292;BME280;50628;51.008;13.658;2023-03-04T15:58:31;99701.34;;;4.47;100.00
64292;BME280;50628;51.008;13.658;2023-03-04T16:03:33;99705.91;;;4.58;100.00
64292;BME280;50628;51.008;13.658;2023-03-04T16:08:35;99704.91;;;4.60;100.00
64292;BME280;50628;51.008;13.658;2023-03-04T16:13:38;99699.00;;;4.58;100.00
64292;BME280;50628;51.008;13.658;2023-03-04T16:18:41;99697.91;;;4.62;100.00
64292;BME280;50628;51.008;13.658;2023-03-04T16:23:44;99695.78;;;4.54;100.00
64292;BME280;50628;51.008;13.658;2023-03-04T16:28:49;99707.72;;;4.55;100.00
64292;BME280;50628;51.008;13.658;2023-03-04T16:33:51;99701.09;;;4.51;100.00
64292;BME280;50628;51.008;13.658;2023-03-04T16:38:54;99697.59;;;4.52;100.00
64292;BME280;50628;51.008;13.658;2023-03-04T16:43:59;99703.03;;;4.32;100.00
64292;BME280;50628;51.008;13.658;2023-03-04T16:49:01;99710.63;;;4.19;100.00
64292;BME280;50628;51.008;13.658;2023-03-04T16:54:03;99719.34;;;4.01;100.00
64292;BME280;50628;51.008;13.658;2023-03-04T16:59:06;99716.97;;;3.80;100.00
64292;BME280;50628;51.008;13.658;2023-03-04T17:04:08;99719.66;;;3.79;100.00
64292;BME280;50628;51.008;13.658;2023-03-04T17:09:10;99711.19;;;3.77;100.00
64292;BME280;50628;51.008;13.658;2023-03-04T17:14:13;99716.38;;;3.75;100.00
64292;BME280;50628;51.008;13.658;2023-03-04T17:19:15;99723.13;;;3.78;100.00
64292;BME280;50628;51.008;13.658;2023-03-04T17:24:17;99729.03;;;3.80;100.00
64292;BME280;50628;51.008;13.658;2023-03-04T17:29:20;99736.16;;;3.75;100.00
64292;BME280;50628;51.008;13.658;2023-03-04T17:34:22;99749.44;;;3.67;100.00
64292;BME280;50628;51.008;13.658;2023-03-04T17:39:25;99739.47;;;3.61;100.00
64292;BME280;50628;51.008;13.658;2023-03-04T17:44:28;99736.69;;;3.48;100.00
64292;BME280;50628;51.008;13.658;2023-03-04T17:49:30;99741.22;;;3.60;100.00
64292;BME280;50628;51.008;13.658;2023-03-04T17:54:33;99738.78;;;3.57;100.00
64292;BME280;50628;51.008;13.658;2023-03-04T17:59:37;99726.84;;;3.72;100.00
64292;BME280;50628;51.008;13.658;2023-03-04T18:04:39;99738.84;;;3.73;100.00
64292;BME280;50628;51.008;13.658;2023-03-04T18:09:42;99736.22;;;3.57;100.00
64292;BME280;50628;51.008;13.658;2023-03-04T18:14:45;99738.25;;;3.68;100.00
64292;BME280;50628;51.008;13.658;2023-03-04T18:19:47;99739.38;;;3.62;100.00
64292;BME280;50628;51.008;13.658;2023-03-04T18:24:48;99741.06;;;3.63;100.00
64292;BME280;50628;51.008;13.658;2023-03-04T18:29:52;99729.94;;;3.63;100.00
64292;BME280;50628;51.008;13.658;2023-03-04T18:34:55;99732.75;;;3.58;100.00
64292;BME280;50628;51.008;13.658;2023-03-04T18:39:57;99731.38;;;3.51;100.00
64292;BME280;50628;51.008;13.658;2023-03-04T18:45:04;99733.56;;;3.59;100.00
64292;BME280;50628;51.008;13.658;2023-03-04T18:50:08;99737.53;;;3.49;100.00
64292;BME280;50628;51.008;13.658;2023-03-04T18:55:10;99730.19;;;3.41;100.00
64292;BME280;50628;51.008;13.658;2023-03-04T19:00:17;99740.06;;;3.33;100.00
64292;BME280;50628;51.008;13.658;2023-03-04T19:05:21;99739.72;;;3.39;100.00
64292;BME280;50628;51.008;13.658;2023-03-04T19:10:24;99744.88;;;3.39;100.00
64292;BME280;50628;51.008;13.658;2023-03-04T19:15:29;99739.19;;;3.50;100.00
64292;BME280;50628;51.008;13.658;2023-03-04T19:20:31;99742.25;;;3.40;100.00
64292;BME280;50628;51.008;13.658;2023-03-04T19:25:35;99744.28;;;3.34;100.00
64292;BME280;50628;51.008;13.658;2023-03-04T19:30:40;99744.06;;;3.38;100.00
64292;BME280;50628;51.008;13.658;2023-03-04T19:35:44;99736.13;;;3.25;100.00
64292;BME280;50628;51.008;13.658;2023-03-04T19:40:47;99749.38;;;3.18;100.00
64292;BME280;50628;51.008;13.658;2023-03-04T19:45:54;99749.81;;;3.09;100.00
64292;BME280;50628;51.008;13.658;2023-03-04T19:50:56;99745.34;;;3.12;100.00
64292;BME280;50628;51.008;13.658;2023-03-04T19:55:59;99757.00;;;3.19;100.00
64292;BME280;50628;51.008;13.658;2023-03-04T20:01:02;99755.56;;;3.14;100.00
64292;BME280;50628;51.008;13.658;2023-03-04T20:06:06;99764.44;;;3.08;100.00
64292;BME280;50628;51.008;13.658;2023-03-04T20:11:11;99753.38;;;3.06;100.00
64292;BME280;50628;51.008;13.658;2023-03-04T20:16:14;99758.84;;;3.00;100.00
64292;BME280;50628;51.008;13.658;2023-03-04T20:21:16;99767.66;;;2.94;100.00
64292;BME280;50628;51.008;13.658;2023-03-04T20:26:18;99776.06;;;2.80;100.00
64292;BME280;50628;51.008;13.658;2023-03-04T20:31:26;99767.97;;;2.88;100.00
64292;BME280;50628;51.008;13.658;2023-03-04T20:36:30;99770.34;;;2.74;100.00
64292;BME280;50628;51.008;13.658;2023-03-04T20:41:33;99768.63;;;2.74;100.00
64292;BME280;50628;51.008;13.658;2023-03-04T20:46:38;99777.91;;;2.77;100.00
64292;BME280;50628;51.008;13.658;2023-03-04T20:51:42;99771.78;;;2.79;100.00
64292;BME280;50628;51.008;13.658;2023-03-04T20:56:44;99758.22;;;2.77;100.00
64292;BME280;50628;51.008;13.658;2023-03-04T21:01:47;99760.06;;;2.74;100.00
64292;BME280;50628;51.008;13.658;2023-03-04T21:06:49;99752.69;;;2.85;100.00
64292;BME280;50628;51.008;13.658;2023-03-04T21:11:53;99750.13;;;2.85;100.00
64292;BME280;50628;51.008;13.658;2023-03-04T21:16:58;99744.84;;;2.88;100.00
64292;BME280;50628;51.008;13.658;2023-03-04T21:22:00;99740.06;;;2.80;100.00
64292;BME280;50628;51.008;13.658;2023-03-04T21:27:03;99749.88;;;2.72;100.00
64292;BME280;50628;51.008;13.658;2023-03-04T21:32:11;99749.88;;;2.72;100.00
64292;BME280;50628;51.008;13.658;2023-03-04T21:37:13;99748.38;;;2.68;100.00
64292;BME280;50628;51.008;13.658;2023-03-04T21:42:15;99742.63;;;2.80;100.00
64292;BME280;50628;51.008;13.658;2023-03-04T21:47:19;99739.31;;;2.78;100.00
64292;BME280;50628;51.008;13.658;2023-03-04T21:52:22;99735.81;;;2.79;100.00
64292;BME280;50628;51.008;13.658;2023-03-04T21:57:23;99735.97;;;2.76;100.00
64292;BME280;50628;51.008;13.658;2023-03-04T22:02:27;99739.66;;;2.71;100.00
64292;BME280;50628;51.008;13.658;2023-03-04T22:07:28;99733.25;;;2.79;100.00
64292;BME280;50628;51.008;13.658;2023-03-04T22:12:30;99719.78;;;2.74;100.00
64292;BME280;50628;51.008;13.658;2023-03-04T22:17:34;99715.63;;;2.72;100.00
64292;BME280;50628;51.008;13.658;2023-03-04T22:22:36;99709.00;;;2.68;100.00
64292;BME280;50628;51.008;13.658;2023-03-04T22:27:38;99706.66;;;2.80;100.00
64292;BME280;50628;51.008;13.658;2023-03-04T22:32:42;99707.19;;;2.70;100.00
64292;BME280;50628;51.008;13.658;2023-03-04T22:37:45;99708.28;;;2.64;100.00
64292;BME280;50628;51.008;13.658;2023-03-04T22:42:47;99699.47;;;2.70;100.00
64292;BME280;50628;51.008;13.658;2023-03-04T22:47:51;99706.25;;;2.71;100.00
64292;BME280;50628;51.008;13.658;2023-03-04T22:52:53;99705.50;;;2.69;100.00
64292;BME280;50628;51.008;13.658;2023-03-04T22:57:55;99702.47;;;2.60;100.00
64292;BME280;50628;51.008;13.658;2023-03-04T23:02:58;99708.59;;;2.58;100.00
64292;BME280;50628;51.008;13.658;2023-03-04T23:08:00;99704.09;;;2.44;100.00
64292;BME280;50628;51.008;13.658;2023-03-04T23:13:02;99693.22;;;2.39;100.00
64292;BME280;50628;51.008;13.658;2023-03-04T23:18:05;99698.28;;;2.41;100.00
64292;BME280;50628;51.008;13.658;2023-03-04T23:23:07;99693.97;;;2.41;100.00
64292;BME280;50628;51.008;13.658;2023-03-04T23:28:09;99698.44;;;2.37;100.00
64292;BME280;50628;51.008;13.658;2023-03-04T23:33:12;99692.69;;;2.32;100.00
64292;BME280;50628;51.008;13.658;2023-03-04T23:38:14;99687.72;;;2.29;100.00
64292;BME280;50628;51.008;13.658;2023-03-04T23:43:16;99690.41;;;2.26;100.00
64292;BME280;50628;51.008;13.658;2023-03-04T23:48:19;99689.44;;;2.29;100.00
64292;BME280;50628;51.008;13.658;2023-03-04T23:53:21;99685.22;;;2.45;100.00
64292;BME280;50628;51.008;13.658;2023-03-04T23:58:23;99672.38;;;2.45;100.00
